Time;durP1;ratioP1;P1;durP2;ratioP2;P2;SDS_P1;SDS_P2;PMS_P1;PMS_P2;Temp;Humidity;BMP_temperature;BMP_pressure;BME280_temperature;BME280_humidity;BME280_pressure;Samples;Min_cycle;Max_cycle;Signal;HPM_P1;HPM_P2
2022/11/05 00:10:30;;;;;;;3.80;0.82;;;12.90;99.90;;;;;;4960092;28;20394;-72
2022/11/05 00:18:29;;;;;;;5.43;0.85;;;12.80;99.90;;;;;;4942614;28;20550;-72
2022/11/05 00:20:56;;;;;;;3.30;0.45;;;12.80;99.90;;;;;;4942798;28;20035;-73
2022/11/05 00:26:10;;;;;;;4.97;0.50;;;12.80;99.90;;;;;;4938755;28;20950;-71
2022/11/05 00:28:36;;;;;;;4.22;0.60;;;12.80;99.90;;;;;;4956067;28;20064;-72
2022/11/05 00:31:05;;;;;;;1.77;0.60;;;12.80;99.90;;;;;;4959996;28;20128;-75
2022/11/05 00:33:31;;;;;;;2.55;0.60;;;12.80;99.90;;;;;;4968848;28;20109;-75
2022/11/05 00:35:57;;;;;;;4.80;0.60;;;12.80;99.90;;;;;;4953368;28;20122;-75
2022/11/05 00:38:23;;;;;;;3.72;0.60;;;12.80;99.90;;;;;;4951467;28;20242;-76
2022/11/05 00:40:49;;;;;;;2.67;0.70;;;12.80;99.90;;;;;;4960075;28;20035;-74
2022/11/05 00:46:00;;;;;;;3.25;0.80;;;12.80;99.90;;;;;;4945448;28;20211;-75
2022/11/05 00:51:10;;;;;;;3.35;0.50;;;12.80;99.90;;;;;;4940738;28;20082;-75
2022/11/05 00:53:36;;;;;;;3.80;0.73;;;12.80;99.90;;;;;;4942814;28;20032;-75
2022/11/05 00:56:02;;;;;;;3.42;0.60;;;12.80;99.90;;;;;;4943352;28;20140;-75
2022/11/05 00:58:28;;;;;;;3.17;0.40;;;12.80;99.90;;;;;;4945737;28;20039;-75
2022/11/05 01:00:57;;;;;;;6.65;0.88;;;12.80;99.90;;;;;;4942912;28;20043;-76
2022/11/05 01:03:29;;;;;;;4.05;0.65;;;12.80;99.90;;;;;;4944999;28;20039;-76
2022/11/05 01:05:58;;;;;;;6.95;0.77;;;12.80;99.90;;;;;;4956584;28;20126;-75
2022/11/05 01:08:26;;;;;;;5.25;0.60;;;12.70;99.90;;;;;;4942418;28;20502;-76
2022/11/05 01:10:56;;;;;;;3.45;0.70;;;12.70;99.90;;;;;;4946176;28;20023;-76
2022/11/05 01:13:26;;;;;;;3.60;0.60;;;12.60;99.90;;;;;;4946447;28;20046;-75
2022/11/05 01:15:53;;;;;;;4.60;0.50;;;12.70;99.90;;;;;;4943457;28;20045;-74
2022/11/05 01:18:20;;;;;;;3.70;0.60;;;12.70;99.90;;;;;;4946014;28;20094;-75
2022/11/05 01:20:47;;;;;;;2.80;0.52;;;12.70;99.90;;;;;;4942602;28;20063;-76
2022/11/05 01:23:13;;;;;;;4.68;0.80;;;12.60;99.90;;;;;;4942957;28;20094;-75
2022/11/05 01:25:40;;;;;;;3.47;0.80;;;12.60;99.90;;;;;;4954787;28;20434;-75
2022/11/05 01:28:08;;;;;;;5.00;0.95;;;12.60;99.90;;;;;;4962579;28;20039;-75
2022/11/05 01:30:34;;;;;;;5.20;0.90;;;12.60;99.90;;;;;;4962057;28;20035;-74
2022/11/05 01:33:02;;;;;;;3.60;0.50;;;12.60;99.90;;;;;;4961136;28;20179;-75
2022/11/05 01:35:27;;;;;;;1.92;0.45;;;12.60;99.90;;;;;;4962211;28;20035;-74
2022/11/05 01:37:53;;;;;;;2.17;0.20;;;12.60;99.90;;;;;;4961779;28;20030;-75
2022/11/05 01:40:22;;;;;;;7.25;0.85;;;12.60;99.90;;;;;;4959982;28;20046;-74
2022/11/05 01:42:48;;;;;;;4.60;0.70;;;12.60;99.90;;;;;;4979925;28;20491;-75
2022/11/05 01:45:17;;;;;;;2.08;0.40;;;12.60;99.90;;;;;;4977774;28;20046;-75
2022/11/05 01:47:50;;;;;;;2.20;0.63;;;12.60;99.60;;;;;;4962191;28;20050;-74
2022/11/05 01:50:49;;;;;;;3.38;0.55;;;12.90;98.40;;;;;;4959359;28;20050;-75
2022/11/05 01:53:20;;;;;;;2.97;0.32;;;12.90;98.40;;;;;;4949921;28;20106;-74
2022/11/05 01:55:57;;;;;;;3.47;0.52;;;13.00;97.90;;;;;;4966299;28;20046;-75
2022/11/05 01:58:27;;;;;;;2.70;0.50;;;13.00;97.80;;;;;;4948588;28;20035;-75
2022/11/05 02:00:55;;;;;;;3.92;0.50;;;13.00;98.00;;;;;;4948582;28;20031;-74
2022/11/05 02:03:22;;;;;;;2.47;0.40;;;13.00;98.00;;;;;;4938885;28;20087;-74
2022/11/05 02:05:51;;;;;;;3.92;0.73;;;12.90;98.50;;;;;;4941763;28;20036;-75
2022/11/05 02:08:59;;;;;;;4.00;0.65;;;12.80;99.20;;;;;;4942739;28;20139;-75
2022/11/05 02:11:25;;;;;;;5.63;0.70;;;12.60;99.60;;;;;;4944935;28;20168;-75
2022/11/05 02:13:51;;;;;;;4.22;1.48;;;12.60;99.90;;;;;;4945474;28;20044;-74
2022/11/05 02:16:32;;;;;;;4.40;0.82;;;12.50;99.90;;;;;;4957495;28;20139;-75
2022/11/05 02:19:28;;;;;;;5.00;0.60;;;12.50;99.90;;;;;;4940887;28;20439;-75
2022/11/05 02:22:21;;;;;;;3.40;0.43;;;12.50;99.90;;;;;;4944507;28;20035;-75
2022/11/05 02:25:13;;;;;;;4.63;0.60;;;12.50;99.90;;;;;;4958513;28;20093;-75
2022/11/05 02:27:57;;;;;;;3.83;0.47;;;12.60;99.50;;;;;;4962153;28;20035;-74
2022/11/05 02:30:28;;;;;;;1.83;0.40;;;12.70;98.60;;;;;;4962079;28;20047;-74
2022/11/05 02:33:29;;;;;;;3.63;0.47;;;12.80;98.10;;;;;;4960003;28;20051;-76
2022/11/05 02:36:22;;;;;;;3.30;0.55;;;12.90;98.10;;;;;;4954123;28;20046;-76
2022/11/05 02:39:15;;;;;;;3.45;0.60;;;12.90;98.10;;;;;;4939072;28;20519;-75
2022/11/05 02:42:14;;;;;;;1.55;0.28;;;12.90;97.60;;;;;;4942534;28;20384;-76
2022/11/05 02:45:12;;;;;;;3.53;0.70;;;13.00;97.60;;;;;;4935027;29;20032;-76
2022/11/05 02:47:50;;;;;;;4.72;0.98;;;12.90;97.80;;;;;;4957576;28;20038;-75
2022/11/05 02:50:27;;;;;;;4.47;0.45;;;12.90;97.50;;;;;;4958659;28;20546;-75
2022/11/05 02:53:39;;;;;;;1.95;0.47;;;13.00;97.60;;;;;;4940464;28;20043;-75
2022/11/05 02:56:14;;;;;;;2.92;0.57;;;13.00;97.50;;;;;;4922676;28;20035;-74
2022/11/05 02:58:41;;;;;;;3.35;0.22;;;13.00;97.00;;;;;;4939992;28;20028;-75
2022/11/05 03:01:10;;;;;;;4.45;0.40;;;13.10;96.70;;;;;;4943983;28;20039;-74
2022/11/05 03:03:46;;;;;;;1.70;0.47;;;13.00;97.30;;;;;;4938672;28;20031;-74
2022/11/05 03:06:47;;;;;;;4.63;0.70;;;13.00;97.30;;;;;;4929958;28;20427;-75
2022/11/05 03:09:21;;;;;;;2.58;0.47;;;13.10;96.60;;;;;;4926372;28;20035;-75
2022/11/05 03:11:47;;;;;;;2.53;0.40;;;13.20;96.50;;;;;;4941710;28;20139;-76
2022/11/05 03:14:26;;;;;;;5.25;0.85;;;13.20;96.10;;;;;;4944382;28;20126;-76
2022/11/05 03:17:00;;;;;;;3.38;0.40;;;13.20;95.90;;;;;;4939866;28;20562;-75
2022/11/05 03:19:58;;;;;;;2.22;0.38;;;13.30;95.80;;;;;;4939188;28;20455;-75
2022/11/05 03:22:40;;;;;;;3.75;0.40;;;13.30;95.60;;;;;;4946304;28;20046;-75
2022/11/05 03:25:12;;;;;;;2.08;0.30;;;13.20;96.40;;;;;;4954308;28;20138;-75
2022/11/05 03:27:44;;;;;;;1.60;0.55;;;13.20;96.00;;;;;;4960156;28;20074;-75
2022/11/05 03:30:11;;;;;;;5.05;0.70;;;13.20;96.30;;;;;;4963773;28;20133;-74
2022/11/05 03:32:46;;;;;;;1.75;0.32;;;13.10;96.70;;;;;;4957803;28;20473;-75
2022/11/05 03:35:23;;;;;;;3.22;0.30;;;13.10;96.60;;;;;;4951446;28;20053;-75
2022/11/05 03:37:53;;;;;;;3.60;0.50;;;13.10;96.40;;;;;;4942968;28;20097;-75
2022/11/05 03:40:22;;;;;;;3.72;0.50;;;13.10;96.60;;;;;;4943027;28;20478;-74
2022/11/05 03:42:53;;;;;;;4.07;0.60;;;13.00;96.50;;;;;;4941109;28;20554;-74
2022/11/05 03:45:25;;;;;;;2.22;0.20;;;13.00;96.40;;;;;;4951043;28;20027;-74
2022/11/05 03:47:56;;;;;;;3.45;0.57;;;13.10;96.00;;;;;;4945110;28;20040;-75
2022/11/05 03:50:45;;;;;;;4.95;0.55;;;13.10;96.00;;;;;;4944467;28;20075;-75
2022/11/05 03:53:16;;;;;;;2.25;0.40;;;13.10;96.30;;;;;;4944893;28;20036;-75
2022/11/05 03:55:51;;;;;;;3.03;0.60;;;13.00;96.50;;;;;;4943904;28;20039;-75
2022/11/05 03:58:20;;;;;;;2.10;0.63;;;12.90;96.90;;;;;;4937844;28;20098;-74
2022/11/05 04:00:47;;;;;;;3.25;0.93;;;12.80;97.50;;;;;;4940268;28;20087;-75
2022/11/05 04:03:15;;;;;;;2.83;0.45;;;12.60;98.20;;;;;;4935956;28;20058;-74
2022/11/05 04:05:43;;;;;;;6.97;0.73;;;12.50;98.90;;;;;;4939991;28;20642;-75
2022/11/05 04:13:39;;;;;;;4.55;0.70;;;12.40;98.80;;;;;;4938312;28;20050;-75
2022/11/05 04:18:51;;;;;;;3.05;0.68;;;12.30;99.10;;;;;;4942789;28;20501;-75
2022/11/05 04:24:07;;;;;;;5.47;0.52;;;12.30;99.50;;;;;;4949616;28;20090;-75
2022/11/05 04:26:42;;;;;;;4.15;0.65;;;12.20;99.70;;;;;;4936913;28;20032;-75
2022/11/05 04:31:53;;;;;;;6.70;0.70;;;12.20;99.70;;;;;;4938351;28;20074;-75
2022/11/05 04:34:20;;;;;;;3.75;0.75;;;12.20;99.80;;;;;;4943396;28;20081;-74
2022/11/05 04:36:51;;;;;;;4.22;1.02;;;12.10;99.90;;;;;;4952114;28;20439;-73
2022/11/05 04:39:18;;;;;;;4.68;0.40;;;12.20;99.60;;;;;;4959931;28;20042;-73
2022/11/05 04:41:47;;;;;;;1.83;0.32;;;12.20;99.60;;;;;;4957649;28;20046;-73
2022/11/05 04:44:14;;;;;;;2.17;0.47;;;12.30;99.40;;;;;;4949236;28;20038;-72
2022/11/05 04:46:41;;;;;;;4.38;0.47;;;12.20;99.70;;;;;;4939044;28;20661;-72
2022/11/05 04:49:06;;;;;;;5.38;0.70;;;12.20;99.50;;;;;;4955872;28;20451;-72
2022/11/05 04:51:32;;;;;;;5.78;0.70;;;12.30;99.10;;;;;;4943597;28;20035;-72
2022/11/05 04:53:59;;;;;;;4.18;0.40;;;12.30;99.40;;;;;;4958727;28;20158;-72
2022/11/05 04:56:25;;;;;;;5.38;0.50;;;12.20;99.30;;;;;;4942693;28;20067;-74
2022/11/05 04:58:50;;;;;;;5.30;0.55;;;12.20;99.60;;;;;;4964300;28;20141;-74
2022/11/05 05:01:21;;;;;;;4.28;0.60;;;12.20;99.60;;;;;;4963725;28;20486;-75
2022/11/05 05:03:49;;;;;;;4.20;0.57;;;12.20;99.70;;;;;;4965555;28;20101;-74
2022/11/05 05:06:16;;;;;;;4.75;0.85;;;12.10;99.60;;;;;;4979173;28;20034;-73
2022/11/05 05:08:42;;;;;;;4.50;0.60;;;12.20;99.50;;;;;;4959077;28;20050;-74
2022/11/05 05:11:15;;;;;;;8.15;1.10;;;12.20;99.30;;;;;;4943746;28;20043;-74
2022/11/05 05:13:41;;;;;;;4.60;0.77;;;12.30;99.00;;;;;;4939971;28;20075;-73
2022/11/05 05:16:08;;;;;;;3.42;0.80;;;12.20;98.80;;;;;;4941784;28;20043;-74
2022/11/05 05:18:34;;;;;;;5.78;0.47;;;12.20;98.90;;;;;;4942093;28;20036;-74
2022/11/05 05:23:47;;;;;;;4.03;0.80;;;12.20;98.80;;;;;;4960378;28;20042;-72
2022/11/05 05:26:13;;;;;;;2.38;0.50;;;12.30;98.60;;;;;;4962496;28;20494;-72
2022/11/05 05:28:39;;;;;;;3.88;0.50;;;12.30;98.40;;;;;;4962301;28;20471;-73
2022/11/05 05:31:05;;;;;;;3.80;0.65;;;12.30;98.40;;;;;;4958498;28;20035;-72
2022/11/05 05:33:32;;;;;;;4.03;0.50;;;12.20;98.40;;;;;;4943645;28;20134;-72
2022/11/05 05:35:58;;;;;;;4.15;0.70;;;12.30;98.30;;;;;;4938822;28;20095;-74
2022/11/05 05:38:24;;;;;;;2.63;0.50;;;12.30;98.30;;;;;;4961173;28;20467;-74
2022/11/05 05:40:51;;;;;;;2.80;0.43;;;12.30;98.10;;;;;;4960164;28;20035;-73
2022/11/05 05:43:17;;;;;;;3.53;0.55;;;12.40;97.90;;;;;;4961969;28;20665;-73
2022/11/05 05:45:43;;;;;;;5.35;0.68;;;12.30;98.60;;;;;;4960895;28;20650;-74
2022/11/05 05:48:09;;;;;;;2.88;0.45;;;12.30;98.50;;;;;;4978830;28;20404;-74
2022/11/05 05:50:35;;;;;;;4.72;0.68;;;12.20;98.50;;;;;;4961237;28;20042;-75
2022/11/05 05:53:01;;;;;;;3.55;0.63;;;12.20;98.60;;;;;;4965220;28;20043;-73
2022/11/05 05:55:26;;;;;;;3.75;0.80;;;12.20;98.60;;;;;;4960953;28;20031;-74
2022/11/05 05:57:53;;;;;;;5.07;0.50;;;12.20;98.40;;;;;;4964867;28;20067;-73
2022/11/05 06:00:19;;;;;;;5.28;0.80;;;12.30;98.30;;;;;;4960759;28;20027;-74
2022/11/05 06:02:45;;;;;;;3.90;0.70;;;12.30;98.50;;;;;;4964031;28;20122;-73
2022/11/05 06:05:10;;;;;;;2.85;0.57;;;12.10;98.60;;;;;;4963014;28;20047;-74
2022/11/05 06:07:36;;;;;;;4.63;1.10;;;12.20;98.60;;;;;;4961282;28;20047;-74
2022/11/05 06:10:03;;;;;;;4.50;0.50;;;12.20;98.30;;;;;;4962091;28;20063;-74
2022/11/05 06:12:29;;;;;;;2.60;0.32;;;12.20;98.60;;;;;;4934387;28;20086;-73
2022/11/05 06:14:54;;;;;;;2.85;0.60;;;12.10;98.60;;;;;;4941543;28;20031;-73
2022/11/05 06:17:20;;;;;;;4.97;0.70;;;12.20;98.60;;;;;;4945153;28;20039;-75
2022/11/05 06:19:47;;;;;;;2.60;0.90;;;12.10;98.90;;;;;;4942610;28;20058;-74
2022/11/05 06:22:13;;;;;;;3.50;0.70;;;12.10;98.90;;;;;;4945890;28;20042;-73
2022/11/05 06:24:39;;;;;;;3.83;0.45;;;12.10;98.60;;;;;;4957844;28;20039;-74
2022/11/05 06:27:04;;;;;;;3.22;0.73;;;12.10;98.70;;;;;;4955567;28;20434;-74
2022/11/05 06:29:30;;;;;;;3.45;0.68;;;12.20;98.00;;;;;;4939441;28;20106;-74
2022/11/05 06:31:56;;;;;;;2.10;0.60;;;12.30;97.60;;;;;;4954546;28;20459;-74
2022/11/05 06:34:22;;;;;;;5.07;0.60;;;12.50;96.70;;;;;;4944407;28;22938;-74
2022/11/05 06:36:47;;;;;;;2.40;0.50;;;12.50;96.70;;;;;;4942466;28;20451;-74
2022/11/05 06:39:13;;;;;;;8.15;0.65;;;12.40;97.30;;;;;;4957636;28;20106;-75
2022/11/05 06:41:39;;;;;;;3.65;0.55;;;12.40;97.40;;;;;;4957274;28;20035;-75
2022/11/05 06:44:05;;;;;;;1.58;0.25;;;12.60;96.10;;;;;;4943902;28;20037;-74
2022/11/05 06:46:31;;;;;;;2.78;0.68;;;12.60;96.40;;;;;;4943876;28;20050;-75
2022/11/05 06:48:57;;;;;;;3.65;0.47;;;12.80;95.50;;;;;;4944696;28;20047;-75
2022/11/05 06:51:23;;;;;;;4.60;0.93;;;12.90;94.70;;;;;;4942994;28;20044;-74
2022/11/05 06:53:49;;;;;;;2.58;0.57;;;12.90;95.00;;;;;;4941674;28;20579;-73
2022/11/05 06:56:15;;;;;;;2.13;0.60;;;12.90;94.80;;;;;;4940406;28;20032;-74
2022/11/05 06:58:41;;;;;;;2.72;0.40;;;13.00;94.00;;;;;;4924864;28;20142;-73
2022/11/05 07:01:08;;;;;;;5.10;0.50;;;13.10;93.70;;;;;;4939477;28;20047;-72
2022/11/05 07:03:36;;;;;;;4.15;0.68;;;13.40;92.80;;;;;;4938761;28;20454;-72
2022/11/05 07:06:03;;;;;;;1.98;0.30;;;13.40;92.80;;;;;;4943760;28;20360;-72
2022/11/05 07:08:36;;;;;;;2.40;0.70;;;13.40;92.70;;;;;;4939557;28;20509;-72
2022/11/05 07:11:03;;;;;;;4.63;0.93;;;13.40;92.80;;;;;;4939735;28;20043;-72
2022/11/05 07:13:29;;;;;;;3.63;0.40;;;13.30;93.10;;;;;;4947687;28;20040;-72
2022/11/05 07:15:55;;;;;;;1.95;0.43;;;13.40;92.70;;;;;;4949162;28;20611;-72
2022/11/05 07:18:22;;;;;;;2.88;0.45;;;13.40;92.60;;;;;;4938858;28;20050;-73
2022/11/05 07:20:48;;;;;;;5.90;0.70;;;13.50;92.20;;;;;;4954101;28;20036;-72
2022/11/05 07:23:14;;;;;;;3.20;0.60;;;13.50;92.10;;;;;;4940762;28;20039;-73
2022/11/05 07:25:41;;;;;;;2.33;0.38;;;13.70;91.80;;;;;;4940497;28;20052;-73
2022/11/05 07:28:07;;;;;;;;;;;13.70;91.60;;;;;;4944023;28;20144;-74
2022/11/05 07:30:34;;;;;;;3.75;0.47;;;13.70;92.00;;;;;;4939784;28;19921;-72
2022/11/05 07:33:00;;;;;;;2.92;0.50;;;13.60;92.50;;;;;;4943493;28;20031;-73
2022/11/05 07:35:27;;;;;;;2.22;0.50;;;13.60;93.00;;;;;;4956296;28;20039;-73
2022/11/05 07:37:53;;;;;;;1.88;0.30;;;13.50;93.30;;;;;;4937864;28;20102;-72
2022/11/05 07:40:22;;;;;;;2.65;0.50;;;13.60;93.30;;;;;;4964006;28;20070;-72
2022/11/05 07:42:51;;;;;;;2.60;0.45;;;13.60;93.30;;;;;;4974417;28;20031;-72
2022/11/05 07:45:18;;;;;;;8.32;0.63;;;13.60;93.00;;;;;;4976123;28;20034;-72
2022/11/05 07:47:57;;;;;;;5.78;0.68;;;13.70;93.10;;;;;;4957310;28;20039;-73
2022/11/05 07:50:25;;;;;;;4.50;0.80;;;13.70;93.50;;;;;;4958763;28;20467;-74
2022/11/05 07:52:50;;;;;;;3.55;0.65;;;13.70;93.50;;;;;;4948733;28;20036;-74
2022/11/05 07:55:18;;;;;;;3.55;0.60;;;13.70;93.50;;;;;;4943964;28;20064;-75
2022/11/05 07:57:46;;;;;;;2.72;0.77;;;13.80;93.40;;;;;;4940121;28;20051;-73
2022/11/05 08:00:14;;;;;;;3.63;0.73;;;13.80;93.20;;;;;;4936313;28;20122;-74
2022/11/05 08:02:41;;;;;;;3.90;0.70;;;13.90;93.10;;;;;;4939873;28;20023;-74
2022/11/05 08:05:08;;;;;;;4.50;0.70;;;14.00;93.00;;;;;;4934343;28;20044;-74
2022/11/05 08:07:34;;;;;;;3.63;0.57;;;14.60;93.00;;;;;;4946136;28;20039;-75
2022/11/05 08:10:02;;;;;;;2.35;0.75;;;15.10;92.10;;;;;;4938628;28;20340;-74
2022/11/05 08:12:30;;;;;;;7.90;1.65;;;15.50;92.30;;;;;;4936988;28;20036;-74
2022/11/05 08:14:56;;;;;;;9.07;1.10;;;15.80;92.30;;;;;;4958234;28;20035;-74
2022/11/05 08:17:21;;;;;;;3.90;0.90;;;16.90;91.30;;;;;;4955514;28;20454;-75
2022/11/05 08:19:47;;;;;;;4.60;1.05;;;16.90;91.10;;;;;;4961175;28;20031;-74
2022/11/05 08:22:13;;;;;;;4.35;1.08;;;17.50;90.90;;;;;;4957279;28;20028;-74
2022/11/05 08:24:39;;;;;;;2.28;0.77;;;17.60;90.20;;;;;;4962922;28;20066;-74
2022/11/05 08:27:04;;;;;;;5.35;1.20;;;17.30;89.90;;;;;;4976861;28;20037;-73
2022/11/05 08:29:30;;;;;;;4.75;0.95;;;18.30;89.90;;;;;;4958771;28;20042;-75
2022/11/05 08:31:56;;;;;;;7.10;1.30;;;18.40;89.00;;;;;;4955183;28;20039;-75
2022/11/05 08:34:22;;;;;;;5.95;1.75;;;18.00;89.80;;;;;;4961063;28;20046;-74
2022/11/05 08:36:47;;;;;;;4.05;0.88;;;17.90;90.40;;;;;;4978227;28;20383;-74
2022/11/05 08:39:13;;;;;;;4.22;0.93;;;17.20;90.30;;;;;;4955633;28;20046;-72
2022/11/05 08:41:43;;;;;;;3.97;1.05;;;17.20;90.60;;;;;;4961502;28;20047;-75
2022/11/05 08:44:09;;;;;;;7.43;1.20;;;17.20;90.60;;;;;;4958097;28;20483;-75
2022/11/05 08:46:35;;;;;;;5.43;0.93;;;17.40;90.50;;;;;;4962039;28;20098;-75
2022/11/05 08:49:02;;;;;;;6.18;1.35;;;17.40;90.40;;;;;;4966458;28;20039;-75
2022/11/05 08:51:28;;;;;;;5.38;1.00;;;17.90;90.20;;;;;;4964892;28;20498;-76
2022/11/05 08:53:53;;;;;;;4.05;1.05;;;18.40;89.80;;;;;;4965691;28;20050;-75
2022/11/05 08:56:22;;;;;;;4.45;0.93;;;17.50;90.30;;;;;;4959768;28;20526;-76
2022/11/05 08:58:47;;;;;;;5.97;1.35;;;17.70;90.50;;;;;;4949729;28;20491;-75
2022/11/05 09:01:13;;;;;;;4.57;0.95;;;17.40;90.70;;;;;;4943504;28;20118;-75
2022/11/05 09:03:39;;;;;;;3.55;1.02;;;17.30;91.10;;;;;;4900447;29;20058;-76
2022/11/05 09:06:05;;;;;;;4.15;0.73;;;17.10;90.70;;;;;;4946897;28;20031;-75
2022/11/05 09:08:32;;;;;;;5.70;1.05;;;16.90;90.60;;;;;;4938022;28;20070;-76
2022/11/05 09:10:58;;;;;;;7.80;1.77;;;17.00;90.70;;;;;;4944441;28;20059;-75
2022/11/05 09:13:24;;;;;;;6.72;1.05;;;16.90;90.80;;;;;;4943150;28;20110;-76
2022/11/05 09:15:51;;;;;;;6.20;1.08;;;16.90;91.30;;;;;;4948887;28;20046;-75
2022/11/05 09:18:18;;;;;;;5.97;0.95;;;16.80;91.00;;;;;;4938597;28;20040;-75
2022/11/05 09:20:45;;;;;;;5.18;1.38;;;16.60;91.40;;;;;;4942614;28;20039;-75
2022/11/05 09:23:13;;;;;;;4.93;0.93;;;16.50;92.10;;;;;;4942436;28;20047;-75
2022/11/05 09:25:39;;;;;;;6.38;1.23;;;16.90;92.10;;;;;;4966322;28;20038;-76
2022/11/05 09:28:10;;;;;;;6.10;1.13;;;17.40;90.50;;;;;;4941785;28;20133;-75
2022/11/05 09:30:46;;;;;;;3.95;0.93;;;17.70;89.60;;;;;;4945029;28;20843;-76
2022/11/05 09:33:12;;;;;;;4.85;1.02;;;17.80;89.80;;;;;;4942496;28;20118;-75
2022/11/05 09:35:39;;;;;;;3.92;0.90;;;18.10;88.50;;;;;;4955431;28;20123;-76
2022/11/05 09:38:06;;;;;;;4.63;1.20;;;18.80;87.30;;;;;;4941708;29;20376;-76
2022/11/05 09:40:40;;;;;;;6.40;1.20;;;18.80;85.90;;;;;;4946118;28;20117;-76
2022/11/05 09:43:06;;;;;;;7.15;1.30;;;19.40;86.10;;;;;;4942550;28;20363;-76
2022/11/05 09:45:34;;;;;;;5.32;1.20;;;19.80;85.60;;;;;;4943161;28;20043;-75
2022/11/05 09:48:06;;;;;;;6.80;1.55;;;20.20;84.80;;;;;;4943397;28;20483;-75
2022/11/05 09:50:39;;;;;;;5.93;1.98;;;20.50;83.50;;;;;;4939767;28;20395;-75
2022/11/05 09:53:05;;;;;;;4.43;1.00;;;21.00;82.70;;;;;;4939680;28;20525;-75
2022/11/05 09:55:37;;;;;;;3.30;1.10;;;21.30;82.00;;;;;;4940128;28;20043;-75
2022/11/05 09:58:21;;;;;;;6.00;1.50;;;21.40;79.90;;;;;;4943410;28;20039;-77
2022/11/05 10:00:51;;;;;;;5.82;1.23;;;21.50;79.20;;;;;;4970619;28;20067;-75
2022/11/05 10:03:22;;;;;;;5.30;1.10;;;21.50;77.90;;;;;;4962353;28;20040;-75
2022/11/05 10:05:50;;;;;;;5.43;1.73;;;21.10;78.50;;;;;;4964567;28;20115;-76
2022/11/05 10:08:21;;;;;;;6.05;1.40;;;21.50;78.40;;;;;;4959177;28;20441;-76
2022/11/05 10:11:06;;;;;;;4.82;1.50;;;21.70;77.60;;;;;;4959160;28;20026;-76
2022/11/05 10:13:55;;;;;;;5.07;1.42;;;22.10;77.90;;;;;;4959671;28;20253;-76
2022/11/05 10:16:34;;;;;;;6.00;2.85;;;22.10;77.40;;;;;;4959002;28;20089;-76
2022/11/05 10:19:15;;;;;;;5.18;1.23;;;21.90;77.30;;;;;;4952856;28;20638;-76
2022/11/05 10:21:42;;;;;;;5.18;1.40;;;22.00;77.30;;;;;;4930792;28;20475;-75
2022/11/05 10:24:14;;;;;;;7.13;1.88;;;22.00;76.90;;;;;;4942676;28;20047;-76
2022/11/05 10:26:40;;;;;;;6.22;1.52;;;22.30;77.00;;;;;;4942352;28;20993;-72
2022/11/05 10:29:06;;;;;;;6.28;1.70;;;22.50;76.50;;;;;;4941655;28;20047;-73
2022/11/05 10:31:36;;;;;;;3.78;1.10;;;22.10;76.40;;;;;;4939494;28;20091;-74
2022/11/05 10:34:05;;;;;;;5.95;1.73;;;21.90;76.00;;;;;;4940376;28;20054;-74
2022/11/05 10:36:34;;;;;;;5.75;1.20;;;22.20;75.40;;;;;;4941370;28;20099;-74
2022/11/05 10:39:16;;;;;;;7.78;2.08;;;22.20;75.40;;;;;;4948425;28;20032;-75
2022/11/05 10:42:00;;;;;;;8.07;1.75;;;22.50;76.00;;;;;;4937965;28;20046;-74
2022/11/05 10:44:30;;;;;;;;;;;23.10;74.90;;;;;;4943696;28;20035;-74
2022/11/05 10:47:15;;;;;;;;;;;23.20;74.30;;;;;;4956216;28;19925;-74
2022/11/05 10:49:50;;;;;;;3.65;1.35;;;23.20;73.90;;;;;;4962117;28;19938;-74
2022/11/05 10:52:38;;;;;;;5.75;1.38;;;23.10;73.50;;;;;;4942794;28;20031;-74
2022/11/05 10:55:33;;;;;;;6.13;2.40;;;23.30;73.20;;;;;;4941048;28;20059;-74
2022/11/05 10:58:29;;;;;;;6.65;1.85;;;23.80;72.80;;;;;;4936198;29;20047;-74
2022/11/05 11:00:55;;;;;;;4.60;1.52;;;23.80;72.80;;;;;;4939834;28;20090;-75
2022/11/05 11:03:41;;;;;;;5.63;1.45;;;23.60;72.60;;;;;;4939112;28;20423;-74
2022/11/05 11:06:36;;;;;;;7.85;1.83;;;23.30;71.90;;;;;;4958312;28;20161;-73
2022/11/05 11:09:07;;;;;;;6.15;1.70;;;23.70;72.00;;;;;;4937505;28;20043;-74
2022/11/05 11:11:40;;;;;;;4.28;1.20;;;23.50;71.80;;;;;;4955864;28;20051;-73
2022/11/05 11:14:18;;;;;;;5.35;1.75;;;22.90;71.60;;;;;;4951718;28;20530;-74
2022/11/05 11:16:49;;;;;;;5.65;1.83;;;23.40;72.90;;;;;;4954834;28;20030;-74
2022/11/05 11:19:28;;;;;;;4.93;1.60;;;23.70;71.80;;;;;;4957227;28;20427;-75
2022/11/05 11:22:02;;;;;;;4.95;1.42;;;22.80;72.20;;;;;;4962537;28;20134;-74
2022/11/05 11:24:30;;;;;;;5.93;1.30;;;23.10;72.20;;;;;;4960305;28;20042;-74
2022/11/05 11:27:41;;;;;;;6.05;1.30;;;22.80;72.40;;;;;;4960076;28;20082;-73
2022/11/05 11:30:17;;;;;;;6.35;2.03;;;22.60;72.70;;;;;;4900064;28;20039;-73
2022/11/05 11:32:43;;;;;;;6.78;1.70;;;22.80;72.10;;;;;;4917148;29;20069;-74
2022/11/05 11:35:21;;;;;;;4.47;1.27;;;23.60;72.70;;;;;;4928628;28;20039;-74
2022/11/05 11:37:48;;;;;;;8.68;2.17;;;24.20;71.60;;;;;;4942553;28;20427;-75
2022/11/05 11:40:19;;;;;;;8.20;1.70;;;24.10;71.10;;;;;;4942471;28;20043;-72
2022/11/05 11:42:48;;;;;;;5.95;1.60;;;23.50;71.10;;;;;;4937804;28;20069;-72
2022/11/05 11:45:32;;;;;;;4.55;1.33;;;23.50;71.00;;;;;;4935227;28;20100;-75
2022/11/05 11:48:00;;;;;;;;;;;23.50;70.20;;;;;;4939629;28;20181;-76
2022/11/05 11:50:41;;;;;;;5.03;1.98;;;24.10;70.10;;;;;;4939998;28;19922;-76
2022/11/05 11:53:19;;;;;;;5.63;1.40;;;24.50;68.80;;;;;;4939574;28;20028;-75
2022/11/05 11:55:54;;;;;;;5.03;1.92;;;24.10;68.60;;;;;;4941590;28;20122;-76
2022/11/05 11:58:21;;;;;;;4.13;1.83;;;24.10;68.30;;;;;;4939637;28;20032;-75
2022/11/05 12:00:56;;;;;;;3.95;1.33;;;24.00;67.50;;;;;;4939680;28;20054;-75
2022/11/05 12:04:07;;;;;;;3.05;1.13;;;24.10;68.30;;;;;;4952176;28;20204;-76
2022/11/05 12:06:46;;;;;;;3.85;1.58;;;24.80;67.10;;;;;;4900577;28;20375;-74
2022/11/05 12:09:20;;;;;;;6.45;1.35;;;25.60;67.60;;;;;;4957212;28;20509;-75
2022/11/05 12:12:06;;;;;;;4.05;1.35;;;25.10;66.70;;;;;;4945987;28;20048;-75
2022/11/05 12:15:00;;;;;;;6.15;1.63;;;25.40;66.30;;;;;;4964425;28;20126;-76
2022/11/05 12:17:54;;;;;;;4.50;1.90;;;26.20;65.80;;;;;;4961815;28;20035;-75
2022/11/05 12:20:32;;;;;;;5.40;1.45;;;26.10;65.90;;;;;;4978453;28;20479;-74
2022/11/05 12:23:07;;;;;;;6.60;1.80;;;25.40;64.20;;;;;;4932804;28;21316;-75
2022/11/05 12:25:56;;;;;;;4.15;1.50;;;26.10;64.70;;;;;;4949245;28;20058;-75
2022/11/05 12:28:40;;;;;;;7.43;1.83;;;25.60;62.50;;;;;;4940560;28;20043;-75
2022/11/05 12:31:32;;;;;;;4.68;1.23;;;24.10;62.40;;;;;;4956025;28;20039;-75
2022/11/05 12:34:43;;;;;;;4.63;1.40;;;25.60;62.60;;;;;;4939776;28;20071;-74
2022/11/05 12:37:15;;;;;;;4.20;1.05;;;26.10;60.90;;;;;;4940324;28;20084;-74
2022/11/05 12:39:49;;;;;;;3.97;1.42;;;27.40;60.60;;;;;;4940626;28;20615;-74
2022/11/05 12:42:26;;;;;;;3.85;1.17;;;27.70;60.60;;;;;;4950986;28;20366;-76
2022/11/05 12:44:58;;;;;;;5.88;1.83;;;28.10;60.10;;;;;;4971434;28;20047;-75
2022/11/05 12:47:39;;;;;;;4.55;1.27;;;27.10;59.90;;;;;;4944168;28;20061;-74
2022/11/05 12:50:40;;;;;;;8.98;1.92;;;27.40;60.20;;;;;;4940186;28;20066;-75
2022/11/05 12:53:37;;;;;;;3.55;1.65;;;28.00;60.10;;;;;;4953407;28;20082;-75
2022/11/05 12:56:12;;;;;;;4.47;1.83;;;28.90;59.70;;;;;;4948028;28;20035;-75
2022/11/05 12:58:43;;;;;;;4.80;1.42;;;29.20;59.30;;;;;;4954385;28;20906;-75
2022/11/05 13:01:38;;;;;;;5.97;2.78;;;28.90;59.00;;;;;;4928763;28;20510;-75
2022/11/05 13:04:16;;;;;;;7.70;2.20;;;29.20;60.50;;;;;;4937045;28;20042;-75
2022/11/05 13:06:46;;;;;;;9.02;3.17;;;30.30;60.70;;;;;;4942576;28;20035;-76
2022/11/05 13:09:22;;;;;;;11.23;3.80;;;30.40;61.00;;;;;;4945684;28;20050;-75
2022/11/05 13:11:56;;;;;;;6.50;2.83;;;29.70;60.50;;;;;;4938999;28;20035;-75
2022/11/05 13:14:32;;;;;;;7.95;3.67;;;28.90;60.70;;;;;;4941051;28;20043;-76
2022/11/05 13:17:01;;;;;;;11.07;3.25;;;26.40;64.30;;;;;;4938284;28;20115;-76
2022/11/05 13:19:46;;;;;;;6.78;2.97;;;25.60;67.00;;;;;;4940889;28;20109;-76
2022/11/05 13:22:33;;;;;;;10.52;3.22;;;24.60;67.40;;;;;;4920236;28;20050;-77
2022/11/05 13:25:21;;;;;;;8.05;2.70;;;24.40;69.80;;;;;;4971304;28;20126;-75
2022/11/05 13:27:46;;;;;;;7.32;2.33;;;25.30;70.60;;;;;;4939641;28;20131;-75
2022/11/05 13:30:23;;;;;;;5.50;1.85;;;24.60;70.40;;;;;;4957891;28;20035;-73
2022/11/05 13:32:58;;;;;;;8.00;2.35;;;23.90;69.40;;;;;;4958927;28;20035;-73
2022/11/05 13:35:35;;;;;;;6.57;2.00;;;24.60;69.40;;;;;;4961847;28;20569;-73
2022/11/05 13:41:01;;;;;;;6.65;2.05;;;25.50;69.00;;;;;;4958448;28;20077;-75
2022/11/05 13:43:45;;;;;;;5.60;1.83;;;24.50;69.80;;;;;;4959711;28;20045;-75
2022/11/05 13:46:36;;;;;;;8.13;2.42;;;24.00;69.60;;;;;;4954727;28;20529;-76
2022/11/05 13:49:18;;;;;;;8.77;2.80;;;24.90;69.40;;;;;;4958741;28;20040;-69
2022/11/05 13:52:19;;;;;;;8.07;2.17;;;25.80;72.40;;;;;;4956438;28;20101;-69
2022/11/05 13:55:23;;;;;;;7.03;1.90;;;25.50;70.10;;;;;;4917951;29;20598;-69
2022/11/05 13:58:33;;;;;;;8.05;2.67;;;26.50;69.60;;;;;;4934502;28;20170;-68